createdAt,value
2018-07-22T00:00:44.564Z,99.90
2018-07-22T00:03:13.753Z,99.90
2018-07-22T00:05:42.845Z,99.90
2018-07-22T00:08:11.927Z,99.90
2018-07-22T00:10:41.135Z,99.90
2018-07-22T00:13:10.577Z,99.90
2018-07-22T00:15:39.937Z,99.90
2018-07-22T00:18:09.236Z,99.90
2018-07-22T00:20:38.332Z,99.90
2018-07-22T00:23:08.585Z,99.90
2018-07-22T00:25:37.736Z,99.90
2018-07-22T00:28:06.933Z,99.90
2018-07-22T00:30:36.029Z,99.90
2018-07-22T00:33:05.390Z,99.90
2018-07-22T00:35:34.645Z,99.90
2018-07-22T00:38:03.818Z,99.90
2018-07-22T00:40:33.028Z,99.90
2018-07-22T00:43:02.150Z,99.90
2018-07-22T00:45:31.994Z,99.90
2018-07-22T00:48:01.297Z,99.90
2018-07-22T00:50:30.531Z,99.90
2018-07-22T00:52:59.815Z,99.90
2018-07-22T00:55:29.100Z,99.90
2018-07-22T00:57:58.382Z,99.90
2018-07-22T01:02:56.324Z,99.90
2018-07-22T01:05:25.371Z,99.90
2018-07-22T01:07:54.439Z,99.90
2018-07-22T01:10:30.433Z,99.90
2018-07-22T01:12:59.582Z,99.90
2018-07-22T01:15:28.797Z,99.90
2018-07-22T01:18:15.468Z,99.90
2018-07-22T01:20:46.357Z,99.90
2018-07-22T01:23:16.260Z,99.90
2018-07-22T01:25:45.772Z,99.90
2018-07-22T01:28:15.907Z,99.90
2018-07-22T01:30:45.102Z,99.90
2018-07-22T01:33:14.237Z,99.90
2018-07-22T01:35:43.359Z,99.90
2018-07-22T01:38:12.544Z,99.90
2018-07-22T01:40:42.155Z,99.90
2018-07-22T01:43:12.018Z,99.90
2018-07-22T01:45:41.893Z,99.90
2018-07-22T01:48:11.157Z,99.90
2018-07-22T01:50:40.510Z,99.90
2018-07-22T01:53:09.824Z,99.90
2018-07-22T01:55:38.902Z,99.90
2018-07-22T01:58:08.135Z,99.90
2018-07-22T02:00:37.325Z,99.90
2018-07-22T02:03:06.850Z,99.90
2018-07-22T02:05:36.103Z,99.90
2018-07-22T02:08:05.312Z,99.90
2018-07-22T02:10:34.614Z,99.90
2018-07-22T02:13:03.712Z,99.90
2018-07-22T02:15:32.812Z,99.90
2018-07-22T02:18:01.903Z,99.90
2018-07-22T02:20:30.952Z,99.90
2018-07-22T02:23:00.055Z,99.90
2018-07-22T02:25:29.613Z,99.90
2018-07-22T02:27:58.855Z,99.90
2018-07-22T02:30:27.972Z,99.90
2018-07-22T02:32:57.168Z,99.90
2018-07-22T02:35:26.437Z,99.90
2018-07-22T02:37:55.769Z,99.90
2018-07-22T02:40:24.938Z,99.90
2018-07-22T02:42:54.546Z,99.90
2018-07-22T02:45:23.669Z,99.90
2018-07-22T02:47:52.968Z,99.90
2018-07-22T02:50:22.063Z,99.90
2018-07-22T02:52:51.160Z,99.90
2018-07-22T02:55:20.256Z,99.90
2018-07-22T02:57:49.315Z,99.90
2018-07-22T03:00:18.372Z,99.90
2018-07-22T03:02:47.419Z,99.90
2018-07-22T03:05:17.214Z,99.90
2018-07-22T03:07:46.550Z,99.90
2018-07-22T03:10:16.188Z,99.90
2018-07-22T03:12:45.446Z,99.90
2018-07-22T03:15:14.906Z,99.90
2018-07-22T03:17:44.197Z,99.90
2018-07-22T03:20:13.371Z,99.90
2018-07-22T03:22:42.661Z,99.90
2018-07-22T03:25:11.793Z,99.90
2018-07-22T03:27:40.942Z,99.90
2018-07-22T03:30:10.018Z,99.90
2018-07-22T03:32:39.110Z,99.90
2018-07-22T03:35:08.727Z,99.90
2018-07-22T03:37:38.119Z,99.90
2018-07-22T03:40:08.320Z,99.90
2018-07-22T03:42:37.479Z,99.90
2018-07-22T03:45:06.768Z,99.90
2018-07-22T03:47:35.912Z,99.90
2018-07-22T03:50:05.580Z,99.90
2018-07-22T03:52:34.952Z,99.90
2018-07-22T03:55:04.153Z,99.90
2018-07-22T03:57:33.730Z,99.90
2018-07-22T04:00:02.931Z,99.90
2018-07-22T04:02:32.239Z,99.90
2018-07-22T04:05:01.380Z,99.90
2018-07-22T04:07:30.683Z,99.90
2018-07-22T04:09:59.868Z,99.90
2018-07-22T04:12:28.997Z,99.90
2018-07-22T04:14:58.222Z,99.90
2018-07-22T04:17:27.411Z,99.90
2018-07-22T04:19:57.883Z,99.90
2018-07-22T04:22:26.962Z,99.90
2018-07-22T04:24:56.280Z,99.90
2018-07-22T04:27:25.371Z,99.90
2018-07-22T04:29:55.030Z,99.90
2018-07-22T04:32:24.349Z,99.90
2018-07-22T04:34:53.411Z,99.90
2018-07-22T04:37:22.666Z,99.90
2018-07-22T04:39:51.877Z,99.90
2018-07-22T04:42:21.002Z,99.90
2018-07-22T04:44:50.388Z,99.90
2018-07-22T04:47:19.521Z,99.90
2018-07-22T04:49:49.508Z,99.90
2018-07-22T04:52:18.624Z,99.90
2018-07-22T04:54:47.730Z,99.90
2018-07-22T04:57:16.912Z,99.90
2018-07-22T04:59:46.571Z,99.90
2018-07-22T05:02:16.490Z,99.90
2018-07-22T05:04:45.697Z,99.90
2018-07-22T05:07:14.863Z,99.90
2018-07-22T05:09:44.128Z,99.90
2018-07-22T05:14:43.249Z,99.90
2018-07-22T05:17:12.746Z,99.90
2018-07-22T05:22:12.310Z,99.90
2018-07-22T05:24:52.639Z,99.90
2018-07-22T05:27:22.180Z,99.90
2018-07-22T05:29:51.405Z,99.90
2018-07-22T05:32:21.675Z,99.90
2018-07-22T05:34:51.078Z,99.90
2018-07-22T05:37:20.723Z,99.90
2018-07-22T05:39:50.165Z,99.90
2018-07-22T05:42:19.523Z,99.90
2018-07-22T05:44:48.635Z,99.90
2018-07-22T05:47:17.982Z,99.90
2018-07-22T05:49:47.265Z,99.90
2018-07-22T05:52:16.428Z,99.90
2018-07-22T05:54:45.536Z,99.90
2018-07-22T05:57:14.683Z,99.90
2018-07-22T05:59:43.880Z,99.90
2018-07-22T06:02:13.154Z,99.90
2018-07-22T06:04:42.305Z,99.90
2018-07-22T06:07:12.114Z,99.90
2018-07-22T06:09:41.392Z,99.90
2018-07-22T06:12:11.067Z,99.90
2018-07-22T06:14:40.500Z,99.90
2018-07-22T06:17:09.651Z,99.90
2018-07-22T06:19:39.018Z,99.90
2018-07-22T06:22:08.316Z,99.90
2018-07-22T06:24:37.586Z,99.90
2018-07-22T06:27:06.906Z,99.90
2018-07-22T06:29:36.285Z,99.90
2018-07-22T06:32:06.168Z,99.90
2018-07-22T06:34:35.437Z,99.90
2018-07-22T06:37:04.582Z,99.90
2018-07-22T06:39:33.803Z,99.90
2018-07-22T06:42:02.932Z,99.90
2018-07-22T06:44:32.201Z,99.90
2018-07-22T06:47:01.365Z,99.90
2018-07-22T06:49:30.592Z,99.90
2018-07-22T06:51:59.694Z,99.90
2018-07-22T06:54:29.059Z,99.90
2018-07-22T06:56:58.336Z,99.90
2018-07-22T06:59:27.429Z,99.90
2018-07-22T07:01:56.635Z,99.90
2018-07-22T07:04:25.772Z,99.90
2018-07-22T07:09:24.387Z,99.90
2018-07-22T07:11:54.627Z,99.90
2018-07-22T07:14:23.723Z,99.90
2018-07-22T07:16:52.931Z,99.90
2018-07-22T07:19:23.710Z,99.90
2018-07-22T07:21:53.183Z,99.90
2018-07-22T07:24:22.414Z,99.80
2018-07-22T07:26:51.555Z,99.90
2018-07-22T07:29:20.845Z,98.80
2018-07-22T07:31:50.019Z,99.80
2018-07-22T07:34:19.326Z,99.90
2018-07-22T07:36:48.508Z,98.20
2018-07-22T07:39:17.675Z,98.50
2018-07-22T07:41:46.979Z,98.40
2018-07-22T07:44:16.085Z,96.50
2018-07-22T07:46:45.411Z,95.60
2018-07-22T07:51:44.091Z,94.90
2018-07-22T07:54:13.285Z,95.10
2018-07-22T07:56:43.052Z,92.70
2018-07-22T07:59:12.197Z,93.30
2018-07-22T08:01:41.253Z,94.10
2018-07-22T08:04:10.545Z,93.60
2018-07-22T08:06:40.359Z,93.30
2018-07-22T08:09:10.694Z,92.00
2018-07-22T08:11:39.998Z,91.40
2018-07-22T08:16:37.994Z,91.80
2018-07-22T08:19:07.306Z,91.40
2018-07-22T08:21:36.501Z,89.70
2018-07-22T08:24:05.885Z,83.40
2018-07-22T08:26:35.097Z,83.20
2018-07-22T08:29:32.104Z,84.40
2018-07-22T08:32:02.520Z,84.90
2018-07-22T08:34:31.600Z,85.10
2018-07-22T08:37:02.148Z,83.70
2018-07-22T08:39:32.369Z,83.00
2018-07-22T08:42:01.988Z,82.60
2018-07-22T08:44:31.146Z,82.10
2018-07-22T08:47:00.208Z,81.70
2018-07-22T08:49:29.477Z,80.20
2018-07-22T08:51:58.581Z,80.90
2018-07-22T08:54:27.801Z,80.60
2018-07-22T08:56:57.025Z,81.10
2018-07-22T08:59:26.369Z,79.30
2018-07-22T09:01:55.497Z,78.90
2018-07-22T09:04:24.783Z,80.10
2018-07-22T09:06:53.912Z,78.50
2018-07-22T09:09:23.091Z,78.40
2018-07-22T09:11:52.445Z,78.20
2018-07-22T09:14:21.686Z,77.50
2018-07-22T09:16:50.826Z,78.20
2018-07-22T09:19:20.604Z,77.60
2018-07-22T09:21:49.665Z,77.40
2018-07-22T09:24:25.519Z,76.40
2018-07-22T09:26:54.746Z,75.50
2018-07-22T09:29:23.805Z,74.70
2018-07-22T09:31:52.948Z,75.30
2018-07-22T09:34:22.264Z,75.40
2018-07-22T09:36:51.439Z,74.20
2018-07-22T09:39:20.739Z,74.30
2018-07-22T09:41:50.075Z,73.90
2018-07-22T09:44:19.209Z,73.30
2018-07-22T09:46:48.332Z,72.90
2018-07-22T09:49:17.434Z,73.00
2018-07-22T09:51:46.530Z,72.40
2018-07-22T09:54:16.059Z,71.70
2018-07-22T09:56:45.388Z,71.30
2018-07-22T09:59:14.602Z,71.00
2018-07-22T10:01:43.867Z,70.50
2018-07-22T10:04:13.022Z,69.60
2018-07-22T10:06:42.127Z,69.40
2018-07-22T10:09:11.999Z,69.10
2018-07-22T10:11:41.672Z,70.00
2018-07-22T10:14:11.294Z,69.40
2018-07-22T10:16:40.377Z,69.80
2018-07-22T10:19:09.477Z,69.10
2018-07-22T10:21:38.887Z,67.30
2018-07-22T10:24:08.074Z,67.00
2018-07-22T10:26:37.530Z,66.40
2018-07-22T10:29:07.169Z,66.20
2018-07-22T10:31:36.632Z,66.40
2018-07-22T10:34:05.895Z,66.00
2018-07-22T10:36:35.418Z,65.90
2018-07-22T10:39:07.352Z,66.10
2018-07-22T10:41:36.506Z,65.00
2018-07-22T10:46:34.778Z,64.10
2018-07-22T10:49:04.133Z,63.10
2018-07-22T10:51:33.978Z,63.00
2018-07-22T10:54:03.203Z,63.10
2018-07-22T10:56:32.573Z,63.60
2018-07-22T10:59:01.696Z,63.10
2018-07-22T11:01:31.984Z,62.70
2018-07-22T11:04:01.442Z,62.30
2018-07-22T11:06:30.739Z,62.40
2018-07-22T11:08:59.919Z,62.20
2018-07-22T11:11:29.226Z,61.80
2018-07-22T11:13:58.429Z,61.70
2018-07-22T11:16:27.556Z,61.80
2018-07-22T11:18:56.803Z,60.80
2018-07-22T11:21:26.212Z,60.20
2018-07-22T11:23:55.338Z,61.10
2018-07-22T11:26:24.565Z,61.80
2018-07-22T11:28:53.687Z,61.60
2018-07-22T11:31:23.647Z,62.20
2018-07-22T11:33:52.743Z,60.90
2018-07-22T11:36:21.936Z,61.60
2018-07-22T11:38:51.248Z,60.90
2018-07-22T11:41:20.441Z,61.50
2018-07-22T11:43:50.408Z,60.50
2018-07-22T11:46:19.943Z,60.90
2018-07-22T11:48:49.074Z,59.90
2018-07-22T11:51:18.256Z,59.70
2018-07-22T11:53:47.906Z,60.10
2018-07-22T11:56:17.248Z,59.90
2018-07-22T11:58:46.518Z,59.90
2018-07-22T12:01:15.861Z,61.60
2018-07-22T12:03:45.095Z,59.80
2018-07-22T12:06:14.639Z,60.30
2018-07-22T12:08:44.160Z,59.50
2018-07-22T12:11:13.432Z,61.00
2018-07-22T12:13:42.577Z,60.80
2018-07-22T12:16:11.749Z,60.30
2018-07-22T12:18:40.838Z,59.80
2018-07-22T12:21:09.933Z,60.20
2018-07-22T12:23:39.210Z,60.50
2018-07-22T12:26:08.422Z,59.60
2018-07-22T12:28:37.677Z,58.80
2018-07-22T12:31:06.976Z,58.60
2018-07-22T12:33:36.055Z,58.50
2018-07-22T12:36:05.489Z,58.50
2018-07-22T12:38:34.730Z,58.30
2018-07-22T12:41:03.852Z,57.70
2018-07-22T12:43:33.132Z,57.30
2018-07-22T12:46:02.505Z,57.60
2018-07-22T12:48:31.793Z,57.40
2018-07-22T12:51:00.886Z,57.00
2018-07-22T12:53:29.928Z,57.30
2018-07-22T12:55:59.147Z,57.00
2018-07-22T13:00:57.047Z,55.50
2018-07-22T13:03:26.248Z,55.40
2018-07-22T13:05:55.629Z,55.50
2018-07-22T13:08:24.850Z,55.70
2018-07-22T13:10:54.125Z,55.60
2018-07-22T13:13:23.388Z,54.90
2018-07-22T13:15:52.596Z,54.90
2018-07-22T13:18:21.761Z,55.50
2018-07-22T13:20:52.039Z,55.00
2018-07-22T13:23:21.206Z,55.90
2018-07-22T13:25:50.565Z,56.60
2018-07-22T13:28:19.607Z,55.70
2018-07-22T13:30:48.836Z,56.00
2018-07-22T13:33:18.850Z,56.30
2018-07-22T13:35:48.047Z,56.30
2018-07-22T13:38:17.243Z,55.90
2018-07-22T13:40:46.477Z,57.10
2018-07-22T13:43:15.657Z,56.00
2018-07-22T13:45:44.852Z,56.50
2018-07-22T13:48:14.622Z,56.70
2018-07-22T13:50:44.055Z,55.20
2018-07-22T13:53:13.142Z,55.10
2018-07-22T13:55:42.497Z,54.30
2018-07-22T13:58:12.167Z,53.60
2018-07-22T14:00:41.272Z,53.60
2018-07-22T14:03:10.532Z,52.90
2018-07-22T14:05:39.628Z,53.90
2018-07-22T14:08:08.714Z,54.10
2018-07-22T14:10:37.888Z,53.90
2018-07-22T14:13:07.237Z,53.20
2018-07-22T14:15:36.394Z,54.20
2018-07-22T14:18:05.838Z,53.20
2018-07-22T14:20:34.955Z,53.00
2018-07-22T14:23:04.361Z,53.10
2018-07-22T14:25:33.660Z,53.80
2018-07-22T14:28:02.919Z,54.10
2018-07-22T14:30:32.939Z,53.90
2018-07-22T14:33:02.244Z,53.20
2018-07-22T14:35:31.703Z,52.70
2018-07-22T14:38:00.844Z,53.00
2018-07-22T14:40:30.059Z,53.30
2018-07-22T14:42:59.604Z,53.90
2018-07-22T14:45:28.759Z,54.10
2018-07-22T14:47:57.999Z,53.80
2018-07-22T14:50:27.455Z,53.40
2018-07-22T14:52:56.508Z,53.70
2018-07-22T14:55:25.741Z,53.40
2018-07-22T14:57:55.251Z,53.20
2018-07-22T15:00:24.593Z,54.00
2018-07-22T15:02:54.018Z,54.60
2018-07-22T15:05:23.870Z,54.90
2018-07-22T15:07:53.134Z,55.90
2018-07-22T15:10:22.337Z,56.60
2018-07-22T15:12:52.348Z,57.30
2018-07-22T15:15:21.527Z,58.00
2018-07-22T15:17:50.650Z,58.60
2018-07-22T15:20:19.822Z,59.00
2018-07-22T15:22:49.090Z,59.10
2018-07-22T15:25:18.666Z,57.80
2018-07-22T15:27:47.753Z,56.90
2018-07-22T15:30:17.098Z,55.70
2018-07-22T15:32:46.290Z,55.90
2018-07-22T15:35:15.407Z,55.70
2018-07-22T15:37:44.576Z,54.20
2018-07-22T15:40:13.765Z,55.20
2018-07-22T15:42:42.966Z,56.00
2018-07-22T15:45:12.138Z,57.70
2018-07-22T15:47:42.347Z,58.80
2018-07-22T15:50:12.188Z,58.80
2018-07-22T15:52:41.490Z,59.40
2018-07-22T15:55:10.610Z,60.80
2018-07-22T15:57:39.904Z,61.90
2018-07-22T16:00:09.949Z,60.90
2018-07-22T16:02:39.658Z,60.10
2018-07-22T16:07:39.395Z,59.40
2018-07-22T16:10:08.710Z,59.40
2018-07-22T16:12:37.883Z,59.50
2018-07-22T16:15:07.269Z,59.90
2018-07-22T16:17:36.717Z,60.90
2018-07-22T16:20:05.900Z,61.70
2018-07-22T16:22:41.501Z,62.10
2018-07-22T16:25:11.794Z,62.60
2018-07-22T16:27:41.911Z,62.60
2018-07-22T16:30:20.648Z,62.50
2018-07-22T16:32:49.860Z,62.80
2018-07-22T16:37:48.365Z,61.50
2018-07-22T16:40:17.557Z,62.20
2018-07-22T16:42:46.948Z,61.90
2018-07-22T16:45:16.164Z,60.60
2018-07-22T16:47:45.307Z,61.00
2018-07-22T16:50:14.371Z,60.90
2018-07-22T16:52:44.465Z,60.60
2018-07-22T16:55:13.844Z,60.70
2018-07-22T16:57:43.777Z,60.90
2018-07-22T17:00:12.959Z,61.50
2018-07-22T17:02:42.231Z,62.10
2018-07-22T17:05:11.373Z,61.50
2018-07-22T17:07:41.838Z,61.80
2018-07-22T17:10:11.282Z,62.10
2018-07-22T17:12:40.496Z,62.90
2018-07-22T17:15:09.611Z,62.70
2018-07-22T17:17:38.819Z,62.30
2018-07-22T17:20:07.928Z,62.30
2018-07-22T17:22:37.221Z,62.30
2018-07-22T17:25:07.058Z,61.80
2018-07-22T17:27:36.692Z,59.90
2018-07-22T17:30:05.957Z,59.20
2018-07-22T17:32:35.134Z,58.50
2018-07-22T17:35:04.319Z,58.30
2018-07-22T17:37:33.943Z,58.00
2018-07-22T17:40:03.076Z,58.10
2018-07-22T17:42:33.367Z,59.10
2018-07-22T17:45:02.494Z,60.00
2018-07-22T17:47:32.632Z,61.80
2018-07-22T17:50:02.003Z,62.90
2018-07-22T17:52:31.184Z,64.00
2018-07-22T17:55:00.919Z,64.70
2018-07-22T17:57:30.104Z,64.70
2018-07-22T17:59:59.315Z,62.40
2018-07-22T18:02:28.420Z,61.30
2018-07-22T18:04:57.656Z,60.80
2018-07-22T18:07:26.823Z,60.40
2018-07-22T18:09:56.014Z,61.70
2018-07-22T18:12:25.218Z,63.40
2018-07-22T18:17:29.707Z,65.10
2018-07-22T18:19:59.156Z,65.40
2018-07-22T18:22:28.367Z,65.90
2018-07-22T18:24:58.248Z,66.50
2018-07-22T18:27:27.358Z,67.50
2018-07-22T18:30:01.312Z,68.30
2018-07-22T18:32:30.386Z,68.90
2018-07-22T18:34:59.837Z,69.50
2018-07-22T18:37:29.259Z,70.40
2018-07-22T18:39:58.394Z,71.20
2018-07-22T18:42:27.678Z,71.80
2018-07-22T18:44:57.215Z,72.40
2018-07-22T18:47:27.111Z,73.50
2018-07-22T18:49:56.384Z,73.40
2018-07-22T18:52:25.540Z,74.00
2018-07-22T18:57:29.189Z,74.90
2018-07-22T18:59:58.449Z,75.40
2018-07-22T19:02:28.059Z,75.80
2018-07-22T19:04:57.474Z,76.30
2018-07-22T19:07:27.205Z,76.50
2018-07-22T19:09:56.277Z,77.20
2018-07-22T19:12:25.352Z,77.90
2018-07-22T19:14:54.559Z,78.30
2018-07-22T19:17:23.947Z,78.80
2018-07-22T19:19:53.260Z,79.50
2018-07-22T19:22:22.732Z,80.00
2018-07-22T19:24:51.843Z,80.30
2018-07-22T19:29:49.714Z,81.40
2018-07-22T19:32:18.937Z,81.80
2018-07-22T19:34:48.171Z,82.30
2018-07-22T19:37:17.606Z,82.80
2018-07-22T19:39:46.795Z,83.50
2018-07-22T19:42:16.086Z,84.00
2018-07-22T19:44:45.265Z,84.30
2018-07-22T19:47:14.554Z,84.60
2018-07-22T19:49:43.667Z,84.80
2018-07-22T19:52:12.751Z,85.20
2018-07-22T19:54:41.855Z,85.70
2018-07-22T19:57:11.588Z,86.00
2018-07-22T19:59:40.684Z,86.20
2018-07-22T20:04:38.919Z,86.60
2018-07-22T20:07:10.002Z,87.10
2018-07-22T20:09:39.197Z,87.20
2018-07-22T20:12:08.796Z,87.60
2018-07-22T20:14:38.178Z,87.70
2018-07-22T20:17:07.406Z,88.10
2018-07-22T20:19:36.539Z,88.40
2018-07-22T20:22:05.807Z,89.40
2018-07-22T20:24:35.989Z,90.00
2018-07-22T20:27:05.149Z,89.80
2018-07-22T20:29:34.330Z,90.20
2018-07-22T20:32:04.742Z,90.50
2018-07-22T20:34:33.984Z,90.60
2018-07-22T20:37:03.121Z,90.80
2018-07-22T20:39:32.402Z,91.00
2018-07-22T20:42:01.530Z,91.00
2018-07-22T20:44:30.622Z,91.20
2018-07-22T20:47:01.667Z,91.30
2018-07-22T20:49:32.035Z,91.30
2018-07-22T20:52:01.241Z,91.90
2018-07-22T20:54:30.601Z,91.60
2018-07-22T20:57:00.556Z,91.80
2018-07-22T20:59:29.678Z,92.30
2018-07-22T21:01:58.917Z,92.20
2018-07-22T21:04:28.426Z,92.20
2018-07-22T21:06:57.580Z,92.30
2018-07-22T21:09:26.752Z,92.20
2018-07-22T21:13:08.613Z,92.40
2018-07-22T21:15:38.032Z,92.30
2018-07-22T21:20:36.017Z,92.60
2018-07-22T21:23:05.518Z,92.70
2018-07-22T21:25:34.717Z,92.90
2018-07-22T21:28:04.162Z,93.10
2018-07-22T21:30:33.500Z,93.50
2018-07-22T21:33:02.634Z,93.40
2018-07-22T21:35:31.792Z,93.60
2018-07-22T21:38:01.929Z,93.80
2018-07-22T21:43:06.286Z,94.20
2018-07-22T21:45:35.533Z,94.40
2018-07-22T21:48:05.914Z,94.70
2018-07-22T21:50:35.392Z,94.90
2018-07-22T21:53:07.458Z,95.20
2018-07-22T21:55:36.842Z,95.50
2018-07-22T21:58:05.987Z,95.50
2018-07-22T22:00:40.365Z,95.60
2018-07-22T22:05:38.587Z,95.70
2018-07-22T22:08:07.884Z,96.00
2018-07-22T22:10:36.949Z,96.10
2018-07-22T22:13:06.313Z,96.40
2018-07-22T22:15:35.450Z,96.20
2018-07-22T22:18:05.467Z,96.50
2018-07-22T22:20:34.776Z,96.60
2018-07-22T22:23:04.171Z,96.70
2018-07-22T22:25:33.439Z,96.60
2018-07-22T22:28:02.530Z,96.70
2018-07-22T22:30:31.702Z,96.80
2018-07-22T22:33:00.958Z,97.00
2018-07-22T22:35:30.159Z,97.10
2018-07-22T22:37:59.462Z,97.20
2018-07-22T22:40:32.904Z,97.40
2018-07-22T22:43:02.625Z,97.80
2018-07-22T22:45:34.388Z,98.10
2018-07-22T22:48:07.171Z,98.20
2018-07-22T22:50:41.355Z,98.50
2018-07-22T22:53:17.381Z,98.80
2018-07-22T22:55:49.339Z,99.10
2018-07-22T22:58:30.287Z,99.40
2018-07-22T23:01:47.523Z,99.70
2018-07-22T23:04:19.912Z,99.90
2018-07-22T23:06:49.534Z,99.90
2018-07-22T23:09:18.791Z,99.90
2018-07-22T23:11:47.995Z,99.90
2018-07-22T23:14:18.231Z,99.90
2018-07-22T23:16:48.165Z,99.90
2018-07-22T23:19:17.686Z,99.90
2018-07-22T23:21:47.652Z,99.90
2018-07-22T23:24:16.761Z,99.90
2018-07-22T23:26:46.037Z,99.90
2018-07-22T23:29:15.399Z,99.90
2018-07-22T23:31:44.666Z,99.90
2018-07-22T23:34:14.009Z,99.90
2018-07-22T23:36:43.407Z,99.90
2018-07-22T23:39:12.705Z,99.90
2018-07-22T23:41:41.824Z,99.90
2018-07-22T23:44:11.183Z,99.90
2018-07-22T23:46:40.304Z,99.90
2018-07-22T23:51:38.482Z,99.90
2018-07-22T23:54:08.805Z,99.90
2018-07-22T23:56:37.959Z,99.90
2018-07-22T23:59:07.296Z,99.90
